Time;durP1;ratioP1;P1;durP2;ratioP2;P2;SDS_P1;SDS_P2;PMS_P1;PMS_P2;Temp;Humidity;BMP_temperature;BMP_pressure;BME280_temperature;BME280_humidity;BME280_pressure;Samples;Min_cycle;Max_cycle;Signal;HPM_P1;HPM_P2
2022/04/29 00:02:06;;;;;;;11.65;6.47;;;7.60;99.90;;;;;;5083810;28;20040;-61
2022/04/29 00:04:32;;;;;;;13.93;5.80;;;7.60;99.90;;;;;;5082697;28;20085;-61
2022/04/29 00:06:58;;;;;;;11.88;5.60;;;7.50;99.90;;;;;;5086175;28;20040;-62
2022/04/29 00:09:24;;;;;;;10.98;5.40;;;7.40;99.90;;;;;;5086452;28;20128;-61
2022/04/29 00:11:51;;;;;;;12.98;5.45;;;7.30;99.90;;;;;;5086394;28;20381;-61
2022/04/29 00:14:17;;;;;;;12.00;5.32;;;7.30;99.90;;;;;;5087126;28;20063;-60
2022/04/29 00:16:43;;;;;;;14.15;5.53;;;7.40;99.90;;;;;;5087366;28;21738;-61
2022/04/29 00:19:08;;;;;;;13.07;5.65;;;7.40;99.90;;;;;;5082750;28;20116;-61
2022/04/29 00:21:34;;;;;;;11.30;5.40;;;7.50;99.90;;;;;;5084719;28;20385;-61
2022/04/29 00:23:59;;;;;;;11.20;5.55;;;7.50;99.90;;;;;;5084626;28;20071;-61
2022/04/29 00:26:25;;;;;;;13.77;6.32;;;7.40;99.90;;;;;;5084132;28;20105;-61
2022/04/29 00:28:50;;;;;;;13.90;5.63;;;7.40;99.90;;;;;;5080850;28;20189;-61
2022/04/29 00:31:16;;;;;;;11.80;5.75;;;7.40;99.90;;;;;;5086846;28;20093;-60
2022/04/29 00:33:42;;;;;;;8.70;5.90;;;7.30;99.90;;;;;;5085915;28;20048;-62
2022/04/29 00:36:07;;;;;;;12.63;5.55;;;7.30;99.90;;;;;;5085360;28;20559;-61
2022/04/29 00:38:33;;;;;;;14.30;6.20;;;7.30;99.90;;;;;;5079862;28;20154;-61
2022/04/29 00:40:58;;;;;;;11.82;7.57;;;7.20;99.90;;;;;;5085804;28;20036;-61
2022/04/29 00:43:24;;;;;;;11.30;6.70;;;7.20;99.90;;;;;;5084904;28;20504;-61
2022/04/29 00:45:51;;;;;;;11.82;7.28;;;7.20;99.90;;;;;;5087112;28;20106;-61
2022/04/29 00:48:17;;;;;;;12.48;6.57;;;7.20;99.90;;;;;;5086845;28;20079;-61
2022/04/29 00:50:43;;;;;;;10.88;6.25;;;7.20;99.90;;;;;;5083895;28;20110;-61
2022/04/29 00:53:12;;;;;;;11.43;5.82;;;7.10;99.90;;;;;;5086410;28;20040;-61
2022/04/29 00:55:39;;;;;;;11.80;6.07;;;7.10;99.90;;;;;;5084862;28;20521;-61
2022/04/29 00:58:20;;;;;;;9.00;5.43;;;7.10;99.90;;;;;;5084389;28;20504;-61
2022/04/29 01:00:46;;;;;;;10.10;5.70;;;7.10;99.90;;;;;;5084928;28;20149;-61
2022/04/29 01:03:13;;;;;;;10.88;5.75;;;7.10;99.90;;;;;;5087247;28;20147;-62
2022/04/29 01:05:39;;;;;;;10.18;5.47;;;7.10;99.90;;;;;;5085530;28;20104;-62
2022/04/29 01:08:05;;;;;;;9.30;5.20;;;7.10;99.90;;;;;;5083852;28;20040;-62
2022/04/29 01:10:31;;;;;;;13.48;6.22;;;7.10;99.90;;;;;;5084535;28;20040;-62
2022/04/29 01:12:59;;;;;;;11.32;5.93;;;7.10;99.90;;;;;;5086631;28;20085;-61
2022/04/29 01:15:26;;;;;;;12.20;6.38;;;7.10;99.90;;;;;;5086332;28;20062;-62
2022/04/29 01:17:59;;;;;;;10.88;5.85;;;7.10;99.90;;;;;;5083605;28;20047;-61
2022/04/29 01:20:27;;;;;;;10.48;6.47;;;7.00;99.90;;;;;;5083936;28;20469;-61
2022/04/29 01:22:52;;;;;;;10.95;6.07;;;7.00;99.90;;;;;;5084045;28;20093;-62
2022/04/29 01:25:18;;;;;;;11.40;6.80;;;6.90;99.90;;;;;;5087072;28;20128;-62
2022/04/29 01:27:44;;;;;;;12.70;6.93;;;6.80;99.90;;;;;;5084916;28;20036;-62
2022/04/29 01:30:12;;;;;;;13.05;6.00;;;6.80;99.90;;;;;;5083704;28;20056;-63
2022/04/29 01:32:39;;;;;;;11.40;6.43;;;6.80;99.90;;;;;;5085483;28;20067;-61
2022/04/29 01:35:07;;;;;;;14.07;6.20;;;6.80;99.90;;;;;;5083758;28;20040;-63
2022/04/29 01:37:33;;;;;;;10.70;6.47;;;6.90;99.90;;;;;;5086408;28;20068;-62
2022/04/29 01:39:59;;;;;;;10.13;6.60;;;6.90;99.90;;;;;;5084790;28;20063;-62
2022/04/29 01:42:24;;;;;;;12.50;6.45;;;6.80;99.90;;;;;;5086515;28;20098;-61
2022/04/29 01:44:50;;;;;;;11.00;6.47;;;6.80;99.90;;;;;;5083883;28;20081;-61
2022/04/29 01:47:16;;;;;;;14.63;6.82;;;6.80;99.90;;;;;;5078470;28;20155;-61
2022/04/29 01:49:42;;;;;;;11.55;6.53;;;6.80;99.90;;;;;;5084951;28;20577;-61
2022/04/29 01:52:08;;;;;;;11.55;6.00;;;6.70;99.90;;;;;;5082782;28;20055;-63
2022/04/29 01:54:35;;;;;;;11.63;6.40;;;6.70;99.90;;;;;;5083109;28;20040;-62
2022/04/29 01:57:01;;;;;;;13.48;7.05;;;6.70;99.90;;;;;;5083465;28;20056;-61
2022/04/29 01:59:29;;;;;;;11.50;6.50;;;6.70;99.90;;;;;;5084261;28;20040;-63
2022/04/29 02:01:55;;;;;;;14.05;7.38;;;6.70;99.90;;;;;;5084543;28;20510;-62
2022/04/29 02:04:21;;;;;;;16.27;7.50;;;6.50;99.90;;;;;;5078842;28;20037;-62
2022/04/29 02:06:46;;;;;;;13.45;7.03;;;6.50;99.90;;;;;;5084283;28;20040;-62
2022/04/29 02:09:13;;;;;;;13.35;8.18;;;6.50;99.90;;;;;;5087157;28;20048;-62
2022/04/29 02:11:38;;;;;;;11.40;7.22;;;6.50;99.90;;;;;;5087483;28;20054;-61
2022/04/29 02:14:04;;;;;;;12.25;7.30;;;6.40;99.90;;;;;;5087534;28;20059;-62
2022/04/29 02:16:30;;;;;;;12.25;7.20;;;6.40;99.90;;;;;;5088860;28;20377;-62
2022/04/29 02:18:55;;;;;;;16.95;8.55;;;6.40;99.90;;;;;;5086789;28;20123;-62
2022/04/29 02:21:21;;;;;;;17.67;8.55;;;6.40;99.90;;;;;;5087974;28;20492;-61
2022/04/29 02:23:47;;;;;;;14.82;8.40;;;6.30;99.90;;;;;;5088802;28;20044;-61
2022/04/29 02:26:13;;;;;;;15.25;8.68;;;6.30;99.90;;;;;;5085239;28;20119;-61
2022/04/29 02:28:38;;;;;;;16.55;9.77;;;6.40;99.90;;;;;;5088424;28;20042;-61
2022/04/29 02:31:04;;;;;;;19.63;10.77;;;6.40;99.90;;;;;;5089741;28;20372;-62
2022/04/29 02:33:30;;;;;;;18.60;11.70;;;6.40;99.90;;;;;;5086513;28;20051;-61
2022/04/29 02:35:56;;;;;;;16.90;11.50;;;6.40;99.90;;;;;;5084619;28;20044;-61
2022/04/29 02:38:22;;;;;;;17.55;11.00;;;6.40;99.90;;;;;;5087468;28;20154;-61
2022/04/29 02:40:50;;;;;;;15.80;10.90;;;6.40;99.90;;;;;;5087522;28;20113;-61
2022/04/29 02:43:17;;;;;;;18.27;10.95;;;6.40;99.90;;;;;;5084704;28;20067;-61
2022/04/29 02:45:43;;;;;;;18.40;10.52;;;6.30;99.90;;;;;;5087873;28;20044;-61
2022/04/29 02:48:09;;;;;;;19.52;11.40;;;6.40;99.90;;;;;;5089013;28;20515;-62
2022/04/29 02:50:35;;;;;;;15.45;9.85;;;6.30;99.90;;;;;;5085962;28;20082;-61
2022/04/29 02:53:01;;;;;;;15.88;9.73;;;6.30;99.90;;;;;;5088287;28;20052;-63
2022/04/29 02:55:26;;;;;;;14.63;8.90;;;6.30;99.90;;;;;;5085443;28;20070;-61
2022/04/29 02:57:52;;;;;;;19.98;10.32;;;6.20;99.90;;;;;;5084442;28;20044;-61
2022/04/29 03:00:18;;;;;;;16.35;9.82;;;6.20;99.90;;;;;;5084232;28;20048;-61
2022/04/29 03:02:44;;;;;;;20.20;12.05;;;6.20;99.90;;;;;;5085272;28;20074;-62
2022/04/29 03:05:09;;;;;;;16.20;11.55;;;6.20;99.90;;;;;;5086059;28;20113;-61
2022/04/29 03:07:35;;;;;;;17.13;11.80;;;6.20;99.90;;;;;;5082855;28;20123;-61
2022/04/29 03:10:00;;;;;;;18.45;11.45;;;6.20;99.90;;;;;;5089972;28;20056;-61
2022/04/29 03:12:26;;;;;;;16.55;9.90;;;6.20;99.90;;;;;;5086727;28;20197;-61
2022/04/29 03:14:52;;;;;;;18.13;9.80;;;6.30;99.90;;;;;;5087970;28;20036;-61
2022/04/29 03:20:02;;;;;;;16.73;9.85;;;6.30;99.90;;;;;;5073112;28;20418;-62
2022/04/29 03:22:28;;;;;;;18.40;9.98;;;6.20;99.90;;;;;;5085158;28;20104;-61
2022/04/29 03:24:54;;;;;;;14.85;9.23;;;6.20;99.90;;;;;;5087764;28;20044;-61
2022/04/29 03:27:20;;;;;;;18.65;10.30;;;6.20;99.90;;;;;;5086163;28;20040;-62
2022/04/29 03:29:45;;;;;;;17.08;10.00;;;6.20;99.90;;;;;;5088026;28;20028;-60
2022/04/29 03:32:11;;;;;;;20.10;12.45;;;6.20;99.90;;;;;;5083002;28;20092;-61
2022/04/29 03:34:36;;;;;;;28.48;13.68;;;6.10;99.90;;;;;;5085349;28;20044;-61
2022/04/29 03:37:02;;;;;;;19.67;10.95;;;6.00;99.90;;;;;;5087633;28;20040;-62
2022/04/29 03:39:28;;;;;;;20.25;11.68;;;6.00;99.90;;;;;;5085567;28;20605;-61
2022/04/29 03:41:53;;;;;;;20.25;11.38;;;6.00;99.90;;;;;;5088924;28;20040;-61
2022/04/29 03:44:20;;;;;;;14.57;10.23;;;6.00;99.90;;;;;;5085342;28;20372;-61
2022/04/29 03:46:46;;;;;;;17.13;10.75;;;6.00;99.90;;;;;;5083055;28;20123;-62
2022/04/29 03:49:57;;;;;;;17.80;9.80;;;6.00;99.90;;;;;;5085486;28;20119;-61
2022/04/29 03:51:57;;;;;;;15.77;9.85;;;6.00;99.90;;;;;;5079668;28;20127;-62
2022/04/29 03:54:23;;;;;;;15.38;8.93;;;6.00;99.90;;;;;;5087169;28;20115;-62
2022/04/29 03:56:48;;;;;;;14.38;8.82;;;5.90;99.90;;;;;;5085481;28;20062;-62
2022/04/29 03:59:14;;;;;;;17.60;9.35;;;6.00;99.90;;;;;;5083983;28;20067;-62
2022/04/29 04:01:39;;;;;;;13.85;9.50;;;6.00;99.90;;;;;;5086071;28;20112;-61
2022/04/29 04:04:05;;;;;;;16.80;8.88;;;6.00;99.90;;;;;;5085148;28;20136;-61
2022/04/29 04:09:15;;;;;;;14.27;8.93;;;6.00;99.90;;;;;;5083994;28;20051;-63
2022/04/29 04:11:41;;;;;;;17.52;9.13;;;6.00;99.90;;;;;;5087199;28;20043;-61
2022/04/29 04:14:08;;;;;;;18.35;8.82;;;6.00;99.90;;;;;;5084948;28;20124;-61
2022/04/29 04:16:34;;;;;;;18.25;8.73;;;6.00;99.90;;;;;;5087389;28;20056;-62
2022/04/29 04:18:59;;;;;;;17.27;9.45;;;6.00;99.90;;;;;;5082236;28;20403;-62
2022/04/29 04:21:25;;;;;;;16.35;9.15;;;5.90;99.90;;;;;;5083266;28;20052;-61
2022/04/29 04:23:53;;;;;;;18.75;8.60;;;5.90;99.90;;;;;;5084414;28;20516;-61
2022/04/29 04:26:18;;;;;;;14.90;8.90;;;5.90;99.90;;;;;;5074780;28;20119;-61
2022/04/29 04:28:44;;;;;;;15.10;9.27;;;6.00;99.90;;;;;;5084683;28;20123;-61
2022/04/29 04:31:09;;;;;;;17.10;9.48;;;6.00;99.90;;;;;;5079013;28;20059;-61
2022/04/29 04:33:35;;;;;;;18.98;9.57;;;6.00;99.90;;;;;;5082019;28;20048;-62
2022/04/29 04:36:01;;;;;;;19.73;10.18;;;6.00;99.90;;;;;;5080008;28;20032;-62
2022/04/29 04:38:26;;;;;;;19.40;11.50;;;6.10;99.90;;;;;;5082866;28;20391;-61
2022/04/29 04:40:53;;;;;;;17.08;9.55;;;6.10;99.90;;;;;;5080796;28;20357;-63
2022/04/29 04:43:20;;;;;;;18.10;9.40;;;6.10;99.90;;;;;;5081306;28;20059;-61
2022/04/29 04:45:46;;;;;;;15.85;8.57;;;6.10;99.90;;;;;;5077619;28;20052;-62
2022/04/29 04:48:12;;;;;;;12.23;8.05;;;6.10;99.90;;;;;;5079102;28;20046;-63
2022/04/29 04:50:38;;;;;;;14.80;8.32;;;6.20;99.90;;;;;;5083244;28;20201;-61
2022/04/29 04:53:03;;;;;;;14.88;8.50;;;6.20;99.90;;;;;;5084347;28;20046;-61
2022/04/29 04:55:29;;;;;;;15.73;7.95;;;6.30;99.90;;;;;;5082690;28;20107;-62
2022/04/29 04:57:54;;;;;;;15.88;8.45;;;6.40;99.90;;;;;;5085451;28;20116;-61
2022/04/29 05:00:20;;;;;;;18.02;9.48;;;6.50;99.90;;;;;;5085393;28;20050;-61
2022/04/29 05:02:46;;;;;;;15.25;9.18;;;6.50;99.90;;;;;;5081642;28;20058;-62
2022/04/29 05:05:12;;;;;;;17.58;8.65;;;6.60;99.90;;;;;;5080744;28;20032;-61
2022/04/29 05:07:38;;;;;;;16.90;7.97;;;6.70;99.90;;;;;;5090118;28;20119;-62
2022/04/29 05:10:06;;;;;;;16.85;8.93;;;6.70;99.90;;;;;;5083527;28;20040;-62
2022/04/29 05:12:37;;;;;;;16.17;8.63;;;6.70;99.90;;;;;;5083301;28;20488;-63
2022/04/29 05:15:03;;;;;;;14.95;7.97;;;6.70;99.90;;;;;;5084259;28;20059;-61
2022/04/29 05:17:29;;;;;;;13.63;8.07;;;6.70;99.90;;;;;;5086102;28;20044;-61
2022/04/29 05:19:54;;;;;;;15.60;8.13;;;6.80;99.90;;;;;;5085868;28;20032;-61
2022/04/29 05:22:20;;;;;;;14.60;8.75;;;6.90;99.90;;;;;;5084244;28;20046;-61
2022/04/29 05:24:48;;;;;;;15.75;8.43;;;7.10;99.90;;;;;;5083213;28;20052;-62
2022/04/29 05:27:14;;;;;;;14.48;7.85;;;7.10;99.90;;;;;;5086501;28;20047;-61
2022/04/29 05:29:39;;;;;;;15.27;7.95;;;7.20;99.90;;;;;;5081298;28;20052;-61
2022/04/29 05:32:06;;;;;;;14.40;7.72;;;7.20;99.90;;;;;;5081151;28;20040;-62
2022/04/29 05:34:33;;;;;;;13.90;8.38;;;7.20;99.90;;;;;;5081732;28;20040;-61
2022/04/29 05:37:00;;;;;;;15.73;8.18;;;7.20;99.90;;;;;;5077185;28;20146;-63
2022/04/29 05:42:18;;;;;;;15.95;8.27;;;7.20;99.90;;;;;;5081846;28;20040;-63
2022/04/29 05:44:45;;;;;;;16.65;8.30;;;7.20;99.90;;;;;;5084768;28;20044;-63
2022/04/29 05:47:11;;;;;;;14.98;8.27;;;7.20;99.90;;;;;;5090964;28;20048;-63
2022/04/29 05:49:37;;;;;;;16.23;8.10;;;7.20;99.90;;;;;;5087712;28;20052;-62
2022/04/29 05:52:03;;;;;;;16.67;8.10;;;7.30;99.90;;;;;;5079183;28;20044;-63
2022/04/29 05:54:31;;;;;;;15.93;8.25;;;7.30;99.90;;;;;;5085151;28;20399;-61
2022/04/29 05:56:57;;;;;;;18.23;10.85;;;7.40;99.90;;;;;;5091276;28;20051;-62
2022/04/29 05:59:23;;;;;;;17.25;10.18;;;7.40;99.90;;;;;;5089579;28;20455;-62
2022/04/29 06:01:48;;;;;;;20.83;10.18;;;7.40;99.90;;;;;;5092645;28;20083;-62
2022/04/29 06:04:14;;;;;;;14.30;9.35;;;7.50;99.90;;;;;;5091457;28;20040;-62
2022/04/29 06:06:39;;;;;;;17.30;9.05;;;7.50;99.90;;;;;;5087419;28;20147;-62
2022/04/29 06:09:05;;;;;;;17.55;8.75;;;7.60;99.90;;;;;;5091176;28;20072;-61
2022/04/29 06:11:30;;;;;;;13.38;8.35;;;7.60;99.90;;;;;;5092624;28;20142;-62
2022/04/29 06:13:56;;;;;;;15.88;9.30;;;7.70;99.90;;;;;;5090516;28;20059;-62
2022/04/29 06:16:21;;;;;;;10.80;7.68;;;7.80;99.90;;;;;;5089297;28;20556;-61
2022/04/29 06:18:47;;;;;;;16.00;7.93;;;7.80;99.90;;;;;;5088521;28;20125;-61
2022/04/29 06:21:13;;;;;;;14.18;8.15;;;7.90;99.90;;;;;;5082058;28;20044;-61
2022/04/29 06:23:39;;;;;;;16.05;7.47;;;7.90;99.90;;;;;;5090653;28;20356;-61
2022/04/29 06:26:05;;;;;;;14.70;8.05;;;7.90;99.90;;;;;;5091055;28;20072;-61
2022/04/29 06:28:32;;;;;;;13.68;8.10;;;7.90;99.90;;;;;;5090661;28;20074;-62
2022/04/29 06:30:58;;;;;;;13.38;8.32;;;8.00;99.90;;;;;;5088761;28;20053;-61
2022/04/29 06:33:23;;;;;;;13.82;7.72;;;8.00;99.90;;;;;;5090326;28;20444;-61
2022/04/29 06:35:50;;;;;;;14.20;7.47;;;8.10;99.90;;;;;;5086763;28;20493;-60
2022/04/29 06:38:16;;;;;;;13.88;7.88;;;8.20;99.90;;;;;;5088682;28;20059;-61
2022/04/29 06:40:41;;;;;;;17.20;8.70;;;8.30;99.90;;;;;;5084644;28;20122;-61
2022/04/29 06:43:07;;;;;;;14.52;7.93;;;8.30;99.90;;;;;;5087508;28;20121;-61
2022/04/29 06:45:33;;;;;;;15.63;7.97;;;8.30;99.90;;;;;;5089068;28;20044;-61
2022/04/29 06:47:58;;;;;;;15.13;8.32;;;8.40;99.90;;;;;;5089220;28;20040;-62
2022/04/29 06:50:24;;;;;;;14.52;8.57;;;8.50;99.90;;;;;;5086556;28;20044;-62
2022/04/29 06:52:50;;;;;;;16.70;7.97;;;8.50;99.90;;;;;;5083221;28;20498;-61
2022/04/29 06:55:15;;;;;;;13.52;7.82;;;8.50;99.90;;;;;;5085099;28;20115;-63
2022/04/29 06:57:41;;;;;;;15.32;8.02;;;8.60;99.90;;;;;;5087135;28;20157;-62
2022/04/29 07:00:08;;;;;;;16.48;8.63;;;8.60;99.90;;;;;;5085331;28;20044;-62
2022/04/29 07:02:33;;;;;;;14.77;8.40;;;8.70;99.90;;;;;;5082132;28;20031;-63
2022/04/29 07:04:59;;;;;;;16.42;8.48;;;8.80;99.90;;;;;;5082969;28;20044;-62
2022/04/29 07:07:28;;;;;;;13.20;7.68;;;8.80;99.90;;;;;;5083410;28;20518;-62
2022/04/29 07:09:54;;;;;;;15.38;8.18;;;8.90;99.90;;;;;;5087993;28;20090;-62
2022/04/29 07:12:20;;;;;;;13.18;7.95;;;8.90;99.90;;;;;;5089450;28;20040;-62
2022/04/29 07:14:46;;;;;;;15.43;8.30;;;8.90;99.90;;;;;;5090404;28;20321;-62
2022/04/29 07:17:11;;;;;;;11.38;6.93;;;9.10;99.90;;;;;;5081467;28;20044;-62
2022/04/29 07:19:37;;;;;;;12.02;6.80;;;9.10;99.90;;;;;;5090199;28;20127;-63
2022/04/29 07:22:04;;;;;;;15.00;7.18;;;9.20;99.90;;;;;;5089462;28;20468;-64
2022/04/29 07:24:30;;;;;;;11.80;6.55;;;9.20;99.90;;;;;;5088251;28;20032;-61
2022/04/29 07:26:57;;;;;;;10.80;7.03;;;9.30;99.90;;;;;;5088620;28;20066;-62
2022/04/29 07:29:22;;;;;;;13.93;6.60;;;9.40;99.90;;;;;;5089051;28;20051;-61
2022/04/29 07:31:48;;;;;;;12.68;6.30;;;9.40;99.90;;;;;;5089768;28;20047;-61
2022/04/29 07:34:13;;;;;;;15.45;5.68;;;9.50;99.90;;;;;;5088052;28;20036;-62
2022/04/29 07:42:08;;;;;;;11.38;5.50;;;9.40;99.90;;;;;;5080760;28;20054;-63
2022/04/29 07:44:34;;;;;;;11.23;5.05;;;9.50;99.90;;;;;;5087174;28;20032;-60
2022/04/29 07:47:00;;;;;;;9.52;5.38;;;9.50;99.90;;;;;;5086584;28;20060;-62
2022/04/29 07:49:26;;;;;;;9.57;4.22;;;9.70;99.90;;;;;;5085818;28;20032;-62
2022/04/29 07:51:52;;;;;;;10.52;5.00;;;9.70;99.90;;;;;;5085878;28;20117;-62
2022/04/29 07:54:17;;;;;;;8.07;4.57;;;9.90;99.90;;;;;;5088758;28;20040;-62
2022/04/29 07:56:43;;;;;;;11.35;4.68;;;10.00;99.90;;;;;;5090944;28;20054;-62
2022/04/29 07:59:08;;;;;;;9.05;4.40;;;10.20;99.90;;;;;;5085153;28;20129;-62
2022/04/29 08:01:38;;;;;;;10.48;4.10;;;10.30;99.90;;;;;;5089692;28;20485;-62
2022/04/29 08:04:04;;;;;;;9.63;4.68;;;10.40;99.90;;;;;;5086294;28;20083;-62
2022/04/29 08:06:30;;;;;;;8.38;3.92;;;10.60;99.90;;;;;;5087882;28;20086;-61
2022/04/29 08:08:56;;;;;;;7.50;3.80;;;10.70;99.90;;;;;;5089493;28;20116;-63
2022/04/29 08:11:21;;;;;;;6.45;3.70;;;10.70;99.90;;;;;;5086552;28;20461;-62
2022/04/29 08:13:47;;;;;;;9.60;4.38;;;10.90;99.90;;;;;;5088727;28;20436;-62
2022/04/29 08:16:13;;;;;;;6.50;3.70;;;11.10;99.90;;;;;;5085724;28;20067;-61
2022/04/29 08:18:39;;;;;;;6.57;3.80;;;11.30;99.90;;;;;;5087690;28;20218;-62
2022/04/29 08:21:05;;;;;;;10.40;4.00;;;11.50;99.90;;;;;;5083400;28;20171;-62
2022/04/29 08:23:31;;;;;;;10.18;4.30;;;11.80;99.90;;;;;;5087474;28;20071;-62
2022/04/29 08:25:57;;;;;;;9.00;4.80;;;12.00;99.90;;;;;;5087648;28;20444;-61
2022/04/29 08:28:23;;;;;;;10.27;4.25;;;12.00;99.90;;;;;;5088252;28;20093;-62
2022/04/29 08:30:49;;;;;;;8.27;3.75;;;12.10;99.90;;;;;;5088931;28;20106;-61
2022/04/29 08:33:15;;;;;;;12.18;4.43;;;12.10;99.90;;;;;;5090114;28;20043;-62
2022/04/29 08:35:42;;;;;;;6.47;4.00;;;12.20;99.90;;;;;;5087509;28;20523;-63
2022/04/29 08:38:10;;;;;;;7.60;4.15;;;12.20;99.90;;;;;;5087752;28;20461;-62
2022/04/29 08:40:41;;;;;;;9.73;4.15;;;12.30;99.90;;;;;;5088000;28;20052;-62
2022/04/29 08:43:07;;;;;;;8.65;3.90;;;12.30;99.90;;;;;;5088684;28;20095;-62
2022/04/29 08:45:33;;;;;;;7.03;4.00;;;12.50;99.90;;;;;;5086945;28;20094;-62
2022/04/29 08:47:59;;;;;;;7.97;4.30;;;12.70;99.90;;;;;;5088741;28;20040;-60
2022/04/29 08:50:26;;;;;;;8.07;3.53;;;12.70;99.90;;;;;;5086279;28;20116;-62
2022/04/29 08:52:54;;;;;;;8.75;4.30;;;12.60;99.90;;;;;;5083582;28;20400;-62
2022/04/29 09:00:49;;;;;;;11.03;4.13;;;12.90;98.90;;;;;;5090292;28;20051;-63
2022/04/29 09:03:16;;;;;;;7.93;3.85;;;12.80;98.10;;;;;;5088596;28;20067;-60
2022/04/29 09:05:43;;;;;;;7.78;3.85;;;12.80;97.60;;;;;;5081304;28;20036;-60
2022/04/29 09:08:14;;;;;;;7.07;3.80;;;12.80;95.70;;;;;;5087220;28;20040;-61
2022/04/29 09:10:47;;;;;;;8.02;3.80;;;12.90;97.20;;;;;;5074850;28;20044;-60
2022/04/29 09:13:19;;;;;;;9.57;3.78;;;12.90;95.20;;;;;;5089562;28;20127;-61
2022/04/29 09:16:00;;;;;;;6.15;3.67;;;13.20;96.40;;;;;;5084263;28;20047;-60
2022/04/29 09:18:42;;;;;;;7.03;3.70;;;13.10;94.10;;;;;;5084922;28;20136;-60
2022/04/29 09:21:11;;;;;;;7.57;3.67;;;13.30;94.80;;;;;;5087944;28;20048;-60
2022/04/29 09:23:43;;;;;;;6.82;3.78;;;13.30;94.10;;;;;;5089639;28;20091;-61
2022/04/29 09:26:20;;;;;;;8.13;3.70;;;13.10;92.30;;;;;;5086624;28;20128;-60
2022/04/29 09:28:47;;;;;;;6.88;3.70;;;13.30;93.50;;;;;;5086803;28;20487;-62
2022/04/29 09:31:14;;;;;;;7.88;3.33;;;13.40;94.30;;;;;;5074995;28;20097;-61
2022/04/29 09:33:40;;;;;;;11.45;3.45;;;13.10;92.80;;;;;;5087155;28;20040;-60
2022/04/29 09:36:06;;;;;;;5.90;3.47;;;13.00;93.40;;;;;;5085241;28;20044;-61
2022/04/29 09:41:23;;;;;;;7.57;3.03;;;12.90;93.60;;;;;;5084286;28;20043;-60
2022/04/29 09:43:48;;;;;;;6.80;3.03;;;12.90;93.10;;;;;;5089133;28;20371;-61
2022/04/29 09:46:23;;;;;;;7.13;3.60;;;12.80;94.20;;;;;;5088371;28;20043;-60
2022/04/29 09:49:10;;;;;;;6.40;3.30;;;12.70;94.50;;;;;;5088005;28;20119;-60
2022/04/29 09:51:58;;;;;;;7.95;3.55;;;12.80;93.50;;;;;;5087942;28;20115;-60
2022/04/29 09:54:25;;;;;;;8.73;3.95;;;12.70;93.40;;;;;;5087634;28;20048;-60
2022/04/29 09:57:04;;;;;;;7.15;3.50;;;12.70;95.50;;;;;;5088620;28;20041;-61
2022/04/29 09:59:41;;;;;;;5.80;3.33;;;12.60;95.50;;;;;;5081948;28;20389;-60
2022/04/29 10:02:11;;;;;;;7.18;3.88;;;12.70;95.70;;;;;;5079404;28;20144;-60
2022/04/29 10:04:40;;;;;;;6.70;3.72;;;12.70;95.80;;;;;;5081930;28;20123;-60
2022/04/29 10:07:08;;;;;;;7.18;3.63;;;12.80;96.40;;;;;;5083318;28;20372;-61
2022/04/29 10:09:40;;;;;;;7.22;3.80;;;12.80;96.20;;;;;;5083369;28;20539;-60
2022/04/29 10:12:17;;;;;;;6.70;3.22;;;12.80;96.60;;;;;;5079404;28;20063;-60
2022/04/29 10:14:45;;;;;;;8.25;3.78;;;13.00;96.60;;;;;;5081266;28;20089;-60
2022/04/29 10:22:56;;;;;;;9.20;4.50;;;12.50;95.20;;;;;;5080905;28;20045;-61
2022/04/29 10:25:26;;;;;;;8.15;3.85;;;12.60;96.50;;;;;;5081356;28;20048;-61
2022/04/29 10:27:52;;;;;;;10.73;4.60;;;12.70;96.60;;;;;;5081033;28;20322;-60
2022/04/29 10:30:29;;;;;;;7.85;3.78;;;12.70;96.40;;;;;;5082148;28;20076;-61
2022/04/29 10:33:04;;;;;;;6.65;3.95;;;12.60;96.30;;;;;;5083565;28;20090;-61
2022/04/29 10:35:39;;;;;;;7.32;3.60;;;12.80;96.50;;;;;;5086411;28;20048;-61
2022/04/29 10:38:32;;;;;;;8.80;3.80;;;13.00;96.20;;;;;;5085173;28;20044;-61
2022/04/29 10:41:06;;;;;;;11.05;4.35;;;12.80;94.10;;;;;;5081515;28;20139;-60
2022/04/29 10:43:39;;;;;;;5.45;3.28;;;12.90;94.50;;;;;;5085245;28;20086;-62
2022/04/29 10:46:04;;;;;;;5.82;3.50;;;13.10;94.40;;;;;;5085083;28;20146;-61
2022/04/29 10:48:34;;;;;;;6.90;2.92;;;13.10;93.90;;;;;;5082639;28;20378;-61
2022/04/29 10:51:10;;;;;;;8.25;3.40;;;13.20;94.00;;;;;;5084376;28;20055;-61
2022/04/29 10:53:41;;;;;;;6.43;3.17;;;13.20;93.10;;;;;;5086959;28;20504;-61
2022/04/29 10:56:39;;;;;;;6.75;3.28;;;13.20;93.40;;;;;;5082905;28;20456;-61
2022/04/29 10:59:09;;;;;;;6.03;2.88;;;13.30;93.60;;;;;;5053319;28;20056;-61
2022/04/29 11:01:36;;;;;;;8.55;3.30;;;13.50;94.10;;;;;;5085665;28;20046;-61
2022/04/29 11:04:31;;;;;;;6.07;2.95;;;13.40;93.10;;;;;;5083165;28;20044;-61
2022/04/29 11:06:56;;;;;;;8.23;3.10;;;13.40;93.80;;;;;;5081408;28;20044;-62
2022/04/29 11:09:48;;;;;;;7.22;3.33;;;13.50;93.80;;;;;;5084579;28;20109;-60
2022/04/29 11:12:31;;;;;;;7.40;3.22;;;13.50;93.20;;;;;;5086738;28;20114;-60
2022/04/29 11:15:14;;;;;;;7.28;2.90;;;13.60;92.60;;;;;;5085100;28;20122;-60
2022/04/29 11:17:40;;;;;;;5.53;2.85;;;13.70;92.30;;;;;;5086173;28;20055;-60
2022/04/29 11:20:25;;;;;;;8.07;2.97;;;13.80;92.70;;;;;;5085319;28;20078;-60
2022/04/29 11:25:53;;;;;;;7.22;2.70;;;14.10;91.10;;;;;;5084262;28;20044;-62
2022/04/29 11:28:20;;;;;;;6.18;2.70;;;13.90;90.40;;;;;;5082755;28;20120;-61
2022/04/29 11:30:47;;;;;;;5.68;2.67;;;13.70;90.90;;;;;;5081440;28;20479;-60
2022/04/29 11:33:13;;;;;;;5.75;2.80;;;13.60;90.50;;;;;;5084630;28;20050;-61
2022/04/29 11:35:39;;;;;;;7.35;3.13;;;13.60;90.50;;;;;;5083434;28;20403;-60
2022/04/29 11:38:09;;;;;;;5.90;2.45;;;13.50;90.90;;;;;;5085151;28;20052;-60
2022/04/29 11:40:39;;;;;;;5.75;2.63;;;13.40;91.50;;;;;;5080747;28;20649;-61
2022/04/29 11:43:10;;;;;;;8.02;2.88;;;13.30;91.80;;;;;;5082076;28;20045;-60
2022/04/29 11:45:38;;;;;;;6.90;2.63;;;13.10;92.50;;;;;;5083080;28;20460;-61
2022/04/29 11:48:05;;;;;;;6.68;2.47;;;13.40;93.00;;;;;;5086045;28;20051;-61
2022/04/29 11:50:33;;;;;;;6.28;2.60;;;13.40;92.80;;;;;;5083153;28;20484;-60
2022/04/29 11:53:06;;;;;;;5.88;2.70;;;13.50;92.80;;;;;;5080606;28;20056;-60
2022/04/29 11:55:32;;;;;;;7.97;2.45;;;13.60;92.30;;;;;;5085706;28;20154;-60
2022/04/29 11:57:58;;;;;;;11.23;3.53;;;13.40;91.20;;;;;;5089618;28;20120;-60
2022/04/29 12:00:25;;;;;;;7.50;3.08;;;13.50;91.90;;;;;;5089390;28;20040;-61
2022/04/29 12:02:52;;;;;;;7.47;2.97;;;13.30;91.50;;;;;;5088666;28;20044;-61
2022/04/29 12:05:22;;;;;;;6.47;2.80;;;13.20;92.00;;;;;;5086456;28;20132;-61
2022/04/29 12:07:48;;;;;;;6.40;2.97;;;13.30;92.90;;;;;;5089164;28;20072;-60
2022/04/29 12:10:22;;;;;;;6.90;3.40;;;13.30;92.50;;;;;;5088777;28;20075;-60
2022/04/29 12:12:48;;;;;;;7.50;3.30;;;13.20;93.40;;;;;;5085995;28;20471;-60
2022/04/29 12:15:18;;;;;;;8.02;3.33;;;13.40;93.70;;;;;;5088046;28;20313;-62
2022/04/29 12:17:44;;;;;;;5.07;3.13;;;13.60;93.70;;;;;;5089937;28;20369;-61
2022/04/29 12:20:16;;;;;;;6.95;3.40;;;13.80;93.10;;;;;;5085903;28;20055;-61
2022/04/29 12:22:41;;;;;;;5.47;3.17;;;13.90;92.90;;;;;;5088050;28;20032;-61
2022/04/29 12:25:27;;;;;;;5.57;2.90;;;14.10;91.70;;;;;;5088021;28;20093;-61
2022/04/29 12:28:13;;;;;;;7.57;3.28;;;14.30;87.10;;;;;;5089433;28;20067;-61
2022/04/29 12:36:13;;;;;;;6.45;3.17;;;14.50;88.60;;;;;;5086561;28;20132;-60
2022/04/29 12:38:40;;;;;;;5.78;3.20;;;14.60;89.60;;;;;;5086380;28;20471;-61
2022/04/29 12:41:27;;;;;;;9.25;4.05;;;14.50;88.10;;;;;;5087058;28;20044;-61
2022/04/29 12:43:54;;;;;;;6.55;3.47;;;14.60;86.80;;;;;;5089276;28;20048;-61
2022/04/29 12:46:22;;;;;;;9.30;3.50;;;14.50;88.20;;;;;;5086477;28;20535;-62
2022/04/29 12:48:50;;;;;;;7.72;3.15;;;14.40;88.30;;;;;;5087574;28;20044;-61
2022/04/29 12:51:31;;;;;;;10.57;3.53;;;14.20;87.20;;;;;;5086429;28;20405;-61
2022/04/29 12:54:02;;;;;;;6.97;3.70;;;13.90;88.30;;;;;;5086275;28;20096;-60
2022/04/29 12:56:32;;;;;;;7.95;3.60;;;13.90;90.40;;;;;;5088478;28;20056;-60
2022/04/29 12:58:59;;;;;;;6.57;3.28;;;13.40;91.00;;;;;;5086037;28;20131;-62
2022/04/29 13:01:25;;;;;;;9.32;4.50;;;13.50;91.60;;;;;;5085978;28;20383;-62
2022/04/29 13:03:55;;;;;;;7.25;3.80;;;13.40;92.10;;;;;;5084776;28;20043;-62
2022/04/29 13:06:24;;;;;;;7.10;4.20;;;13.50;92.40;;;;;;5082204;28;20051;-61
2022/04/29 13:08:55;;;;;;;6.60;3.72;;;13.70;92.10;;;;;;5084109;28;20134;-61
2022/04/29 13:11:22;;;;;;;8.18;3.88;;;13.80;91.70;;;;;;5086026;28;20039;-61
2022/04/29 13:13:52;;;;;;;6.72;3.95;;;13.70;91.60;;;;;;5087595;28;20044;-60
2022/04/29 13:16:19;;;;;;;7.22;4.10;;;13.80;91.60;;;;;;5086982;28;20557;-61
2022/04/29 13:18:45;;;;;;;7.50;4.53;;;13.70;91.60;;;;;;5089518;28;20120;-61
2022/04/29 13:21:12;;;;;;;8.70;4.65;;;13.80;91.10;;;;;;5085856;28;20799;-61
2022/04/29 13:23:40;;;;;;;9.05;4.00;;;13.80;90.50;;;;;;5082806;28;20719;-61
2022/04/29 13:26:06;;;;;;;9.43;3.80;;;13.60;90.30;;;;;;5086119;28;20059;-62